Time;durP1;ratioP1;P1;durP2;ratioP2;P2;SDS_P1;SDS_P2;PMS_P1;PMS_P2;Temp;Humidity;BMP_temperature;BMP_pressure;BME280_temperature;BME280_humidity;BME280_pressure;Samples;Min_cycle;Max_cycle;Signal;HPM_P1;HPM_P2
2023/01/03 00:00:51;;;;;;;3.30;1.00;;;12.30;73.90;;;;;;5038250;28;20456;-66
2023/01/03 00:03:19;;;;;;;3.90;1.00;;;12.30;73.80;;;;;;5038698;28;20877;-64
2023/01/03 00:05:48;;;;;;;3.37;1.10;;;12.30;73.70;;;;;;5039862;28;21356;-62
2023/01/03 00:08:18;;;;;;;3.33;0.90;;;12.30;73.70;;;;;;5039850;28;20474;-63
2023/01/03 00:10:46;;;;;;;4.53;1.00;;;12.30;73.70;;;;;;5038116;28;20447;-65
2023/01/03 00:13:13;;;;;;;3.37;0.97;;;12.30;73.70;;;;;;5038843;28;20594;-64
2023/01/03 00:15:41;;;;;;;4.40;0.93;;;12.30;73.60;;;;;;5039654;28;20525;-64
2023/01/03 00:18:09;;;;;;;5.27;1.40;;;12.30;73.50;;;;;;5041022;28;20467;-64
2023/01/03 00:20:37;;;;;;;3.83;1.17;;;12.20;73.50;;;;;;5041172;28;20521;-64
2023/01/03 00:23:05;;;;;;;3.70;1.00;;;12.20;73.50;;;;;;5038825;28;20556;-65
2023/01/03 00:25:34;;;;;;;4.10;1.23;;;12.20;73.50;;;;;;5040438;28;20471;-65
2023/01/03 00:28:02;;;;;;;9.70;1.90;;;12.20;73.50;;;;;;5037918;28;20525;-66
2023/01/03 00:30:30;;;;;;;3.50;1.20;;;12.20;73.50;;;;;;5040826;28;20467;-65
2023/01/03 00:32:58;;;;;;;3.77;1.33;;;12.20;73.50;;;;;;5039720;28;21461;-65
2023/01/03 00:35:26;;;;;;;3.70;0.93;;;12.20;73.50;;;;;;5042419;28;20997;-65
2023/01/03 00:37:54;;;;;;;6.50;1.10;;;12.20;73.50;;;;;;5041240;28;20455;-65
2023/01/03 00:40:23;;;;;;;3.47;1.03;;;12.10;73.50;;;;;;5041425;28;20451;-65
2023/01/03 00:45:38;;;;;;;3.00;0.90;;;12.10;73.50;;;;;;5041630;28;20470;-65
2023/01/03 00:48:06;;;;;;;3.80;1.20;;;12.10;73.50;;;;;;5041718;28;20454;-65
2023/01/03 00:50:37;;;;;;;3.03;1.20;;;12.10;73.40;;;;;;5042083;28;20466;-65
2023/01/03 00:53:04;;;;;;;3.30;1.10;;;12.00;73.40;;;;;;5039752;28;21391;-65
2023/01/03 00:55:34;;;;;;;3.50;1.10;;;12.00;73.50;;;;;;5039762;28;21012;-65
2023/01/03 00:58:03;;;;;;;4.50;1.10;;;12.00;73.50;;;;;;5040611;28;20552;-66
2023/01/03 01:00:31;;;;;;;4.30;1.33;;;12.10;73.40;;;;;;5039714;28;20471;-65
2023/01/03 01:02:59;;;;;;;4.00;1.07;;;12.00;73.40;;;;;;5038574;28;20548;-66
2023/01/03 01:05:29;;;;;;;6.80;1.20;;;12.00;73.30;;;;;;5041508;28;20466;-64
2023/01/03 01:07:57;;;;;;;3.60;1.20;;;12.00;73.40;;;;;;5039711;28;20524;-65
2023/01/03 01:10:25;;;;;;;3.47;0.93;;;12.00;73.30;;;;;;5040144;28;21231;-65
2023/01/03 01:12:55;;;;;;;4.13;1.13;;;12.00;73.30;;;;;;5039182;28;21195;-64
2023/01/03 01:15:24;;;;;;;3.40;1.10;;;11.90;73.20;;;;;;5041004;28;20505;-65
2023/01/03 01:17:52;;;;;;;3.33;1.20;;;11.90;73.20;;;;;;5038988;28;20459;-65
2023/01/03 01:20:20;;;;;;;3.50;1.00;;;11.90;73.20;;;;;;5039224;28;20486;-64
2023/01/03 01:22:48;;;;;;;5.83;1.93;;;11.80;73.20;;;;;;5038279;28;20502;-64
2023/01/03 01:25:16;;;;;;;3.97;1.40;;;11.80;73.20;;;;;;5042433;28;20533;-66
2023/01/03 01:27:44;;;;;;;4.73;1.20;;;11.80;73.20;;;;;;5041772;28;20988;-65
2023/01/03 01:30:12;;;;;;;3.40;1.20;;;11.80;73.10;;;;;;5042070;28;21231;-64
2023/01/03 01:32:43;;;;;;;4.07;1.13;;;11.70;73.10;;;;;;5041744;28;21002;-63
2023/01/03 01:35:11;;;;;;;3.10;0.80;;;11.70;73.00;;;;;;5041612;28;20455;-66
2023/01/03 01:37:38;;;;;;;4.07;1.47;;;11.70;73.10;;;;;;5042493;28;20479;-65
2023/01/03 01:40:08;;;;;;;4.97;1.30;;;11.60;73.10;;;;;;5040546;28;20471;-66
2023/01/03 01:45:21;;;;;;;4.27;1.60;;;11.50;73.00;;;;;;5042748;28;21468;-65
2023/01/03 01:47:54;;;;;;;4.13;1.77;;;11.50;73.00;;;;;;5042063;28;20525;-66
2023/01/03 01:50:26;;;;;;;5.23;1.30;;;11.40;73.20;;;;;;5043400;28;20470;-66
2023/01/03 01:52:58;;;;;;;4.07;2.07;;;11.40;73.30;;;;;;5039930;28;20497;-67
2023/01/03 01:55:31;;;;;;;4.23;1.70;;;11.40;73.50;;;;;;5042654;28;20451;-65
2023/01/03 01:58:00;;;;;;;3.87;1.83;;;11.50;73.60;;;;;;5040565;28;20487;-65
2023/01/03 02:00:29;;;;;;;4.50;2.30;;;11.50;73.70;;;;;;5040584;28;20488;-64
2023/01/03 02:02:58;;;;;;;4.23;2.13;;;11.50;73.70;;;;;;5041170;28;20470;-64
2023/01/03 02:05:28;;;;;;;4.50;2.00;;;11.50;73.80;;;;;;5041951;28;20450;-65
2023/01/03 02:07:56;;;;;;;4.07;1.40;;;11.60;73.80;;;;;;5040854;28;20463;-65
2023/01/03 02:10:33;;;;;;;4.10;1.50;;;11.60;73.90;;;;;;5040998;28;20481;-65
2023/01/03 02:13:09;;;;;;;5.57;1.83;;;11.60;73.80;;;;;;5040549;28;20615;-62
2023/01/03 02:15:52;;;;;;;7.30;1.80;;;11.60;73.80;;;;;;5041185;28;20536;-64
2023/01/03 02:18:42;;;;;;;4.20;1.80;;;11.60;73.80;;;;;;5040565;28;20547;-64
2023/01/03 02:21:30;;;;;;;3.97;1.90;;;11.60;73.90;;;;;;5038154;28;20826;-64
2023/01/03 02:24:33;;;;;;;5.30;1.80;;;11.60;73.90;;;;;;5040644;28;20483;-65
2023/01/03 02:27:15;;;;;;;4.47;2.00;;;11.60;74.00;;;;;;5041570;28;21173;-66
2023/01/03 02:30:22;;;;;;;4.67;2.17;;;11.60;74.00;;;;;;5040784;28;20495;-66
2023/01/03 02:32:57;;;;;;;4.10;1.93;;;11.60;74.10;;;;;;5038918;28;20467;-64
2023/01/03 02:35:32;;;;;;;4.63;1.90;;;11.60;74.00;;;;;;5041879;28;20463;-63
2023/01/03 02:38:09;;;;;;;4.77;1.83;;;11.60;74.10;;;;;;5040447;28;20463;-64
2023/01/03 02:40:43;;;;;;;4.17;1.97;;;11.60;74.10;;;;;;5039886;28;20952;-64
2023/01/03 02:43:17;;;;;;;4.30;1.90;;;11.50;74.20;;;;;;5040350;28;20487;-63
2023/01/03 02:45:59;;;;;;;5.03;1.90;;;11.50;74.20;;;;;;5044041;28;20473;-63
2023/01/03 02:48:36;;;;;;;4.30;2.13;;;11.50;74.10;;;;;;5045692;28;20466;-67
2023/01/03 02:51:10;;;;;;;4.60;1.73;;;11.50;74.10;;;;;;5040793;28;20451;-65
2023/01/03 02:53:40;;;;;;;4.13;1.60;;;11.50;74.10;;;;;;5040333;28;21050;-63
2023/01/03 02:56:12;;;;;;;5.70;2.10;;;11.50;74.10;;;;;;5040884;28;20439;-64
2023/01/03 02:58:44;;;;;;;5.90;2.03;;;11.50;74.20;;;;;;5039243;28;20463;-64
2023/01/03 03:01:16;;;;;;;4.27;1.70;;;11.40;74.10;;;;;;5041003;28;20536;-64
2023/01/03 03:03:46;;;;;;;3.90;1.83;;;11.40;73.90;;;;;;5041314;28;20482;-64
2023/01/03 03:06:21;;;;;;;6.27;2.50;;;11.30;74.00;;;;;;5040394;28;21292;-65
2023/01/03 03:08:49;;;;;;;5.83;2.33;;;11.30;73.90;;;;;;5040864;28;21273;-64
2023/01/03 03:14:11;;;;;;;6.27;3.57;;;11.10;73.80;;;;;;5039872;28;20482;-64
2023/01/03 03:16:49;;;;;;;6.50;3.03;;;10.90;74.00;;;;;;5038759;28;20454;-65
2023/01/03 03:25:09;;;;;;;8.60;5.30;;;10.80;74.30;;;;;;5039813;28;20471;-64
2023/01/03 03:30:28;;;;;;;5.20;3.10;;;10.70;74.20;;;;;;5039950;28;20471;-65
2023/01/03 03:33:04;;;;;;;4.90;2.90;;;10.70;74.30;;;;;;5039713;28;21251;-65
2023/01/03 03:35:35;;;;;;;9.63;2.67;;;10.60;74.50;;;;;;5038953;28;21053;-65
2023/01/03 03:38:08;;;;;;;4.63;2.30;;;10.70;74.60;;;;;;5041144;28;20553;-65
2023/01/03 03:46:34;;;;;;;5.37;2.77;;;10.70;74.90;;;;;;5038849;28;20448;-63
2023/01/03 03:51:56;;;;;;;6.40;3.00;;;10.80;75.00;;;;;;5038768;28;20456;-65
2023/01/03 03:54:25;;;;;;;6.10;3.10;;;10.80;75.00;;;;;;5041230;28;20903;-66
2023/01/03 03:57:02;;;;;;;5.17;3.03;;;10.80;75.00;;;;;;5041451;28;20978;-63
2023/01/03 03:59:31;;;;;;;4.80;2.47;;;10.80;75.00;;;;;;5041391;28;20451;-65
2023/01/03 04:02:03;;;;;;;4.43;2.20;;;10.80;75.00;;;;;;5040466;28;20455;-66
2023/01/03 04:04:37;;;;;;;4.67;2.47;;;10.80;74.90;;;;;;5043950;28;20561;-64
2023/01/03 04:07:05;;;;;;;6.30;2.70;;;10.80;74.90;;;;;;5044023;28;20461;-64
2023/01/03 04:09:33;;;;;;;7.13;2.60;;;10.80;74.70;;;;;;5044492;28;20532;-65
2023/01/03 04:12:01;;;;;;;5.87;3.10;;;10.70;74.70;;;;;;5043765;28;20955;-64
2023/01/03 04:14:29;;;;;;;4.70;2.50;;;10.70;74.70;;;;;;5041032;28;20550;-65
2023/01/03 04:16:58;;;;;;;4.43;2.53;;;10.60;74.60;;;;;;5043124;28;20458;-65
2023/01/03 04:19:26;;;;;;;8.60;3.83;;;10.60;74.50;;;;;;5041742;28;20474;-65
2023/01/03 04:21:55;;;;;;;6.67;3.47;;;10.50;74.40;;;;;;5043109;28;21008;-65
2023/01/03 04:24:23;;;;;;;6.53;3.40;;;10.40;74.50;;;;;;5042180;28;20486;-65
2023/01/03 04:26:51;;;;;;;7.00;3.77;;;10.30;74.50;;;;;;5043805;28;20493;-66
2023/01/03 04:29:19;;;;;;;6.87;3.80;;;10.20;74.50;;;;;;5042108;28;20529;-63
2023/01/03 04:31:47;;;;;;;7.30;3.90;;;10.20;74.50;;;;;;5043113;28;20463;-64
2023/01/03 04:34:15;;;;;;;5.93;3.70;;;10.10;74.50;;;;;;5041352;28;20546;-65
2023/01/03 04:36:43;;;;;;;7.13;3.40;;;10.10;74.50;;;;;;5043509;28;20463;-65
2023/01/03 04:39:12;;;;;;;8.83;4.13;;;10.00;74.50;;;;;;5043838;28;20455;-65
2023/01/03 04:41:40;;;;;;;9.43;5.27;;;9.90;74.20;;;;;;5044415;28;20450;-64
2023/01/03 04:44:08;;;;;;;6.57;3.73;;;9.80;74.30;;;;;;5042612;28;20586;-65
2023/01/03 04:46:38;;;;;;;7.70;4.37;;;9.70;74.60;;;;;;5042731;28;20540;-64
2023/01/03 04:49:09;;;;;;;8.90;3.97;;;9.70;74.90;;;;;;5041322;28;20528;-64
2023/01/03 04:51:37;;;;;;;7.33;3.73;;;9.80;74.90;;;;;;5041890;28;20468;-64
2023/01/03 04:54:06;;;;;;;6.27;3.30;;;9.80;74.90;;;;;;5039944;28;20487;-65
2023/01/03 04:56:37;;;;;;;6.63;3.63;;;9.80;74.80;;;;;;5042784;28;20527;-65
2023/01/03 04:59:06;;;;;;;6.00;3.20;;;9.80;74.60;;;;;;5038940;28;20876;-65
2023/01/03 05:01:34;;;;;;;6.30;3.40;;;9.70;74.70;;;;;;5041614;28;20466;-65
2023/01/03 05:04:03;;;;;;;5.37;3.53;;;9.70;74.70;;;;;;5042861;28;20490;-65
2023/01/03 05:06:31;;;;;;;6.93;3.70;;;9.70;74.70;;;;;;5041827;28;20554;-65
2023/01/03 05:08:59;;;;;;;5.80;3.27;;;9.70;74.70;;;;;;5042185;28;20458;-65
2023/01/03 05:11:27;;;;;;;5.80;3.37;;;9.70;74.90;;;;;;5042649;28;20505;-64
2023/01/03 05:13:56;;;;;;;6.80;3.57;;;9.70;74.90;;;;;;5041997;28;20478;-65
2023/01/03 05:16:24;;;;;;;6.00;3.33;;;9.70;74.90;;;;;;5043107;28;20463;-65
2023/01/03 05:18:53;;;;;;;6.20;3.30;;;9.70;75.00;;;;;;5041159;28;20495;-65
2023/01/03 05:26:56;;;;;;;5.27;3.17;;;9.70;75.00;;;;;;5043491;28;20497;-65
2023/01/03 05:29:27;;;;;;;5.53;3.33;;;9.70;75.00;;;;;;5040557;28;20650;-65
2023/01/03 05:31:56;;;;;;;5.23;3.00;;;9.70;75.00;;;;;;5038455;28;20451;-65
2023/01/03 05:34:24;;;;;;;6.80;3.20;;;9.70;75.00;;;;;;5040770;28;20560;-65
2023/01/03 05:36:52;;;;;;;5.60;3.70;;;9.70;75.00;;;;;;5042684;28;20956;-64
2023/01/03 05:39:20;;;;;;;7.63;3.40;;;9.70;75.10;;;;;;5042762;28;20465;-63
2023/01/03 05:42:00;;;;;;;4.90;2.80;;;9.80;75.10;;;;;;5043057;28;20517;-65
2023/01/03 05:44:30;;;;;;;5.33;2.97;;;9.80;75.10;;;;;;5040977;28;20486;-63
2023/01/03 05:46:59;;;;;;;5.50;3.63;;;9.80;75.10;;;;;;5043369;28;20500;-64
2023/01/03 05:49:27;;;;;;;6.93;3.10;;;9.80;75.00;;;;;;5042822;28;20471;-64
2023/01/03 05:51:55;;;;;;;5.87;3.63;;;9.70;74.90;;;;;;5043291;28;20443;-64
2023/01/03 05:54:22;;;;;;;5.13;3.23;;;9.70;74.70;;;;;;5042831;28;21034;-64
2023/01/03 05:56:50;;;;;;;6.00;4.00;;;9.60;74.50;;;;;;5040532;28;20514;-63
2023/01/03 05:59:19;;;;;;;5.20;2.77;;;9.50;74.60;;;;;;5042253;28;20447;-66
2023/01/03 06:01:49;;;;;;;6.77;3.90;;;9.50;74.80;;;;;;5040265;28;20544;-64
2023/01/03 06:04:17;;;;;;;6.20;3.60;;;9.50;74.80;;;;;;5039383;28;20490;-63
2023/01/03 06:06:45;;;;;;;5.90;3.37;;;9.40;74.90;;;;;;5039425;28;20467;-65
2023/01/03 06:09:13;;;;;;;6.23;3.23;;;9.50;74.90;;;;;;5043209;28;20485;-65
2023/01/03 06:11:41;;;;;;;6.17;3.10;;;9.40;74.90;;;;;;5042077;28;20459;-66
2023/01/03 06:14:09;;;;;;;6.43;3.30;;;9.40;74.80;;;;;;5041701;28;20490;-64
2023/01/03 06:19:25;;;;;;;12.10;3.40;;;9.40;74.90;;;;;;5041191;28;20220;-66
2023/01/03 06:21:53;;;;;;;6.80;4.40;;;9.40;74.60;;;;;;5040999;28;20463;-66
2023/01/03 06:24:21;;;;;;;7.10;3.87;;;9.30;74.30;;;;;;5041810;28;20584;-64
2023/01/03 06:26:49;;;;;;;7.30;4.20;;;9.20;74.30;;;;;;5041209;28;20553;-64
2023/01/03 06:29:17;;;;;;;6.07;4.03;;;9.00;74.30;;;;;;5040019;28;20204;-63
2023/01/03 06:31:45;;;;;;;10.77;6.30;;;8.90;74.30;;;;;;5041399;28;20479;-65
2023/01/03 06:34:15;;;;;;;17.50;8.47;;;8.80;74.40;;;;;;5056545;28;20564;-65
2023/01/03 06:36:44;;;;;;;16.92;8.63;;;8.70;74.40;;;;;;5040538;28;20458;-64
2023/01/03 06:39:12;;;;;;;14.48;8.45;;;8.60;74.30;;;;;;5041828;28;20631;-64
2023/01/03 06:41:40;;;;;;;15.10;8.35;;;8.50;74.70;;;;;;5038194;28;20252;-64
2023/01/03 06:44:10;;;;;;;11.93;6.63;;;8.50;74.70;;;;;;5044063;28;20220;-64
2023/01/03 06:55:00;;;;;;;9.00;5.93;;;8.30;75.10;;;;;;5039649;28;20228;-65
2023/01/03 06:57:28;;;;;;;12.27;7.20;;;8.30;75.30;;;;;;5038655;28;20224;-64
2023/01/03 06:59:56;;;;;;;14.70;9.32;;;8.30;75.40;;;;;;5038355;28;21038;-64
2023/01/03 07:02:24;;;;;;;14.57;8.97;;;8.30;75.30;;;;;;5040477;28;20219;-65
2023/01/03 07:04:52;;;;;;;19.98;12.10;;;8.30;75.40;;;;;;5033737;28;20581;-64
2023/01/03 07:07:21;;;;;;;28.58;15.52;;;8.30;75.50;;;;;;5038718;28;20235;-64
2023/01/03 07:09:49;;;;;;;19.80;12.57;;;8.40;75.70;;;;;;5039494;28;20270;-66
2023/01/03 07:15:05;;;;;;;16.20;8.20;;;8.50;75.90;;;;;;5038158;28;20212;-64
2023/01/03 07:17:33;;;;;;;13.82;10.48;;;8.50;75.70;;;;;;5041430;28;20237;-65
2023/01/03 07:20:01;;;;;;;15.30;10.80;;;8.40;75.80;;;;;;5040208;28;20192;-65
2023/01/03 07:22:31;;;;;;;17.97;10.30;;;8.50;76.00;;;;;;5035900;28;20215;-65
2023/01/03 07:24:58;;;;;;;16.73;10.85;;;8.50;76.10;;;;;;5039431;28;20486;-65
2023/01/03 07:27:26;;;;;;;15.02;10.75;;;8.50;76.20;;;;;;5040986;28;20263;-65
2023/01/03 07:29:55;;;;;;;19.50;13.57;;;8.50;76.30;;;;;;5039707;28;20197;-65
2023/01/03 07:32:23;;;;;;;10.03;8.07;;;8.60;76.50;;;;;;5037278;28;20204;-64
2023/01/03 07:34:51;;;;;;;12.50;9.82;;;8.70;76.50;;;;;;5035358;28;21049;-64
2023/01/03 07:37:18;;;;;;;14.80;11.50;;;8.70;76.60;;;;;;5039292;28;20211;-66
2023/01/03 07:39:48;;;;;;;13.63;9.68;;;8.70;76.60;;;;;;5043083;28;20470;-65
2023/01/03 07:45:01;;;;;;;31.47;22.10;;;8.80;76.80;;;;;;5044032;28;20220;-65
2023/01/03 07:47:29;;;;;;;23.40;17.38;;;8.90;77.10;;;;;;5042508;28;20501;-65
2023/01/03 07:49:57;;;;;;;23.83;15.87;;;9.00;76.90;;;;;;5041230;28;20743;-66
2023/01/03 07:52:27;;;;;;;23.87;14.47;;;9.00;77.10;;;;;;5042420;28;20458;-66
2023/01/03 07:54:56;;;;;;;19.83;14.97;;;9.10;76.90;;;;;;5044142;28;20483;-66
2023/01/03 07:57:24;;;;;;;14.85;11.40;;;9.10;76.90;;;;;;5045641;28;20891;-65
2023/01/03 07:59:52;;;;;;;16.83;12.90;;;9.10;76.90;;;;;;5043597;28;20204;-65
2023/01/03 08:02:20;;;;;;;16.80;12.50;;;9.10;76.90;;;;;;5044828;28;20454;-65
2023/01/03 08:04:49;;;;;;;17.25;12.05;;;9.10;77.00;;;;;;5044386;28;20490;-65
2023/01/03 08:07:17;;;;;;;16.07;12.17;;;9.10;77.00;;;;;;5045494;28;20223;-65
2023/01/03 08:15:17;;;;;;;19.17;13.67;;;9.20;77.30;;;;;;5045321;28;20438;-66
2023/01/03 08:17:45;;;;;;;15.30;11.47;;;9.30;77.40;;;;;;5044388;28;20847;-65
2023/01/03 08:20:14;;;;;;;14.90;10.27;;;9.40;77.50;;;;;;5044368;28;20489;-66
2023/01/03 08:22:42;;;;;;;18.90;15.20;;;9.40;77.50;;;;;;5041752;28;20466;-66
2023/01/03 08:25:10;;;;;;;17.13;12.40;;;9.50;77.40;;;;;;5040959;28;20466;-65
2023/01/03 08:27:39;;;;;;;17.87;12.37;;;9.50;77.30;;;;;;5043482;28;21078;-64
2023/01/03 08:30:14;;;;;;;22.80;9.90;;;9.50;77.40;;;;;;5043821;28;20959;-65
2023/01/03 08:32:43;;;;;;;18.20;10.50;;;9.50;77.40;;;;;;5043927;28;20453;-66
2023/01/03 08:35:11;;;;;;;13.90;8.93;;;9.50;77.30;;;;;;5043047;28;21080;-66
2023/01/03 08:37:39;;;;;;;14.20;10.50;;;9.50;77.30;;;;;;5047278;28;21041;-65
2023/01/03 08:40:10;;;;;;;12.80;9.30;;;9.50;77.30;;;;;;5045006;28;21034;-65
2023/01/03 08:42:39;;;;;;;10.30;6.33;;;9.50;77.30;;;;;;5043563;28;20573;-65
2023/01/03 08:45:11;;;;;;;11.93;8.17;;;9.50;77.20;;;;;;5044272;28;20485;-66
2023/01/03 08:47:40;;;;;;;8.83;5.97;;;9.50;77.30;;;;;;5044565;28;21257;-65
2023/01/03 08:50:09;;;;;;;9.70;6.17;;;9.50;77.30;;;;;;5043660;28;21033;-66
2023/01/03 08:52:37;;;;;;;11.85;6.97;;;9.50;77.20;;;;;;5045860;28;20451;-65
2023/01/03 08:55:07;;;;;;;10.80;7.20;;;9.50;77.20;;;;;;5043355;28;20228;-64
2023/01/03 08:57:35;;;;;;;12.17;7.07;;;9.50;77.20;;;;;;5042904;28;20685;-66
2023/01/03 09:00:05;;;;;;;9.53;6.53;;;9.50;77.30;;;;;;5043738;28;20521;-64
2023/01/03 09:02:34;;;;;;;9.70;6.43;;;9.50;77.30;;;;;;5040394;28;20462;-66
2023/01/03 09:05:03;;;;;;;9.43;6.73;;;9.50;77.20;;;;;;5042656;28;20335;-66
2023/01/03 09:07:31;;;;;;;8.20;5.90;;;9.50;77.20;;;;;;5042419;28;20471;-66
2023/01/03 09:09:59;;;;;;;8.87;6.27;;;9.50;77.20;;;;;;5041649;28;21015;-66
2023/01/03 09:12:27;;;;;;;8.37;5.67;;;9.50;77.20;;;;;;5043822;28;20466;-66
2023/01/03 09:14:55;;;;;;;8.77;6.00;;;9.50;77.30;;;;;;5038031;28;20495;-65
2023/01/03 09:17:24;;;;;;;7.57;5.57;;;9.50;77.30;;;;;;5015622;28;20467;-65
2023/01/03 09:19:52;;;;;;;11.30;6.30;;;9.50;77.30;;;;;;5028769;28;20532;-66
2023/01/03 09:22:20;;;;;;;10.50;6.17;;;9.50;77.30;;;;;;5042023;28;20466;-65
2023/01/03 09:24:48;;;;;;;9.67;6.63;;;9.50;77.40;;;;;;5041838;28;20495;-65
2023/01/03 09:27:16;;;;;;;8.70;6.50;;;9.60;77.50;;;;;;5041905;28;20525;-66
2023/01/03 09:29:44;;;;;;;11.10;6.37;;;9.60;77.50;;;;;;5038720;28;20528;-65
2023/01/03 09:32:12;;;;;;;15.07;9.00;;;9.70;77.50;;;;;;5042108;28;20809;-65
2023/01/03 09:34:41;;;;;;;11.20;7.93;;;9.70;77.50;;;;;;5041305;28;21243;-66
2023/01/03 09:37:09;;;;;;;11.30;7.00;;;9.70;77.50;;;;;;5041036;28;20443;-66
2023/01/03 09:39:39;;;;;;;14.00;9.67;;;9.80;77.50;;;;;;5037321;28;20554;-66
2023/01/03 09:44:57;;;;;;;9.83;6.70;;;9.80;77.40;;;;;;5039349;28;20598;-65
2023/01/03 09:47:26;;;;;;;9.53;5.67;;;9.80;77.50;;;;;;5037127;28;20474;-66
2023/01/03 09:49:56;;;;;;;9.80;6.00;;;9.90;77.40;;;;;;5036031;28;20825;-67
2023/01/03 10:04:39;;;;;;;13.47;7.87;;;9.90;77.20;;;;;;5040393;28;20474;-66
2023/01/03 10:07:16;;;;;;;9.47;6.40;;;9.80;77.20;;;;;;5042227;28;20471;-66
2023/01/03 10:09:54;;;;;;;12.97;6.93;;;9.80;77.20;;;;;;5036095;28;20512;-67
2023/01/03 10:12:31;;;;;;;10.50;6.90;;;9.70;77.40;;;;;;5055740;28;20450;-66
2023/01/03 10:15:14;;;;;;;10.17;5.57;;;9.70;77.50;;;;;;5057563;28;20486;-64
2023/01/03 10:17:52;;;;;;;11.73;7.30;;;9.70;77.60;;;;;;5035022;28;20816;-65
2023/01/03 10:20:35;;;;;;;10.40;6.77;;;9.70;77.70;;;;;;5039062;28;20471;-66
2023/01/03 10:23:06;;;;;;;9.63;6.70;;;9.80;77.80;;;;;;5040444;28;21203;-66
2023/01/03 10:25:37;;;;;;;21.83;11.43;;;9.90;77.80;;;;;;5037638;28;21412;-64
2023/01/03 10:28:12;;;;;;;13.73;7.23;;;9.90;77.70;;;;;;5032962;28;20483;-66
2023/01/03 10:30:57;;;;;;;12.30;6.80;;;10.00;77.80;;;;;;5035225;28;20516;-65
2023/01/03 10:33:39;;;;;;;9.00;5.53;;;10.00;77.70;;;;;;5028465;28;21354;-66
2023/01/03 10:36:08;;;;;;;12.10;5.87;;;10.00;77.80;;;;;;5000632;28;20482;-66
2023/01/03 10:38:39;;;;;;;10.70;7.00;;;10.00;77.70;;;;;;5020396;28;20450;-64
2023/01/03 10:41:19;;;;;;;10.50;6.63;;;10.10;77.70;;;;;;5034030;28;20463;-66
2023/01/03 10:43:57;;;;;;;11.67;7.20;;;10.10;77.70;;;;;;5035279;28;20486;-66
2023/01/03 10:46:26;;;;;;;12.83;8.53;;;10.10;77.60;;;;;;5035515;28;21344;-65
2023/01/03 10:48:57;;;;;;;12.93;8.37;;;10.10;77.60;;;;;;5034640;28;20462;-66
2023/01/03 10:51:53;;;;;;;12.40;7.40;;;10.10;77.50;;;;;;5032615;28;20567;-65
2023/01/03 10:54:30;;;;;;;12.23;8.00;;;10.10;77.30;;;;;;5034171;28;20494;-65
2023/01/03 10:56:59;;;;;;;12.23;8.70;;;10.00;77.40;;;;;;5030830;28;20470;-65
2023/01/03 10:59:29;;;;;;;12.30;8.10;;;10.00;77.40;;;;;;5035643;28;20467;-65
2023/01/03 11:02:00;;;;;;;11.97;8.00;;;9.90;77.10;;;;;;5038598;28;20471;-65
2023/01/03 11:04:29;;;;;;;10.17;7.10;;;9.80;77.20;;;;;;5034364;28;20478;-66
2023/01/03 11:07:11;;;;;;;10.13;6.93;;;9.70;77.50;;;;;;5035527;28;20512;-66
2023/01/03 11:09:47;;;;;;;11.33;7.33;;;9.80;77.70;;;;;;5039014;28;20467;-66
2023/01/03 11:12:27;;;;;;;10.53;6.87;;;9.80;77.80;;;;;;5042309;28;20562;-66
2023/01/03 11:14:57;;;;;;;12.00;6.40;;;9.80;77.80;;;;;;5041189;28;20494;-66
2023/01/03 11:17:27;;;;;;;9.77;6.57;;;9.80;77.80;;;;;;5038089;28;20469;-66
2023/01/03 11:19:57;;;;;;;12.97;8.30;;;9.80;78.00;;;;;;5041990;28;20455;-66
2023/01/03 11:22:36;;;;;;;10.20;6.73;;;9.90;78.00;;;;;;5040426;28;20455;-65
2023/01/03 11:25:24;;;;;;;10.40;6.47;;;9.90;78.10;;;;;;5043257;28;20576;-65
2023/01/03 11:28:12;;;;;;;12.70;7.20;;;9.90;78.00;;;;;;5038414;28;20553;-66
2023/01/03 11:30:52;;;;;;;11.40;6.97;;;9.90;78.00;;;;;;5039615;28;20612;-65
2023/01/03 11:33:41;;;;;;;13.10;6.63;;;9.90;78.10;;;;;;5041833;28;21150;-65
2023/01/03 11:36:29;;;;;;;13.20;7.33;;;10.00;78.10;;;;;;5038881;28;20463;-65
2023/01/03 11:39:06;;;;;;;10.87;6.20;;;10.00;78.10;;;;;;5037251;28;20466;-65
2023/01/03 11:42:11;;;;;;;12.13;7.13;;;10.00;78.10;;;;;;5035361;28;20498;-65
2023/01/03 11:45:02;;;;;;;11.00;6.80;;;10.00;78.20;;;;;;5035263;28;20482;-65
2023/01/03 11:47:39;;;;;;;12.40;6.63;;;10.00;78.20;;;;;;5035151;28;20568;-65
2023/01/03 11:50:21;;;;;;;11.50;6.83;;;10.10;78.30;;;;;;5038445;28;20469;-65
2023/01/03 11:52:56;;;;;;;10.17;6.30;;;10.10;78.30;;;;;;5040180;28;20548;-66
2023/01/03 11:55:40;;;;;;;8.73;5.30;;;10.10;78.30;;;;;;5040625;28;20959;-66
2023/01/03 11:58:37;;;;;;;12.20;6.87;;;10.10;78.40;;;;;;5038016;28;20466;-65
2023/01/03 12:01:11;;;;;;;9.13;5.83;;;10.10;78.40;;;;;;5041808;28;20495;-66
2023/01/03 12:04:01;;;;;;;12.07;6.37;;;10.20;78.40;;;;;;5042074;28;21126;-66
2023/01/03 12:06:34;;;;;;;10.70;5.50;;;10.20;78.40;;;;;;5042258;28;20538;-66
2023/01/03 12:09:13;;;;;;;13.10;6.37;;;10.20;78.50;;;;;;5039980;28;20532;-65
2023/01/03 12:12:06;;;;;;;9.47;5.90;;;10.30;78.50;;;;;;5041527;28;20458;-66
2023/01/03 12:14:40;;;;;;;10.43;6.97;;;10.30;78.50;;;;;;5043610;28;20475;-66
2023/01/03 12:17:15;;;;;;;10.73;6.07;;;10.30;78.50;;;;;;5043197;28;20462;-67
2023/01/03 12:19:49;;;;;;;11.70;7.20;;;10.40;78.50;;;;;;5042968;28;21052;-66
2023/01/03 12:22:22;;;;;;;15.10;7.53;;;10.40;78.50;;;;;;5043163;28;20516;-66
2023/01/03 12:24:54;;;;;;;10.00;6.70;;;10.40;78.50;;;;;;5045150;28;21032;-66
2023/01/03 12:27:37;;;;;;;12.93;6.67;;;10.50;78.40;;;;;;5040708;28;20535;-66
2023/01/03 12:30:22;;;;;;;10.27;6.80;;;10.50;78.40;;;;;;5048366;28;20460;-66
2023/01/03 12:32:53;;;;;;;14.10;7.47;;;10.50;78.50;;;;;;5045621;28;20455;-68
2023/01/03 12:35:30;;;;;;;7.40;5.57;;;10.50;78.50;;;;;;5047986;28;20458;-68
2023/01/03 12:37:59;;;;;;;8.53;5.77;;;10.50;78.40;;;;;;5045092;28;20457;-65
2023/01/03 12:40:37;;;;;;;10.00;5.70;;;10.50;78.50;;;;;;5048108;28;20509;-64
2023/01/03 12:43:11;;;;;;;10.43;4.97;;;10.60;78.50;;;;;;5046546;28;20482;-67
2023/01/03 12:45:50;;;;;;;8.57;5.40;;;10.60;78.60;;;;;;5044566;28;20536;-66
2023/01/03 12:48:31;;;;;;;10.40;5.50;;;10.60;78.50;;;;;;5043119;28;20493;-66
2023/01/03 12:50:59;;;;;;;9.30;5.90;;;10.60;78.50;;;;;;5037754;28;20489;-66
2023/01/03 12:53:32;;;;;;;10.70;5.37;;;10.70;78.50;;;;;;5042681;28;20494;-67
2023/01/03 12:56:27;;;;;;;9.27;5.37;;;10.70;78.50;;;;;;5044194;28;20477;-67
2023/01/03 12:59:05;;;;;;;7.30;4.87;;;10.70;78.40;;;;;;5039343;28;20475;-66
2023/01/03 13:01:39;;;;;;;12.40;6.40;;;10.70;78.40;;;;;;5045029;28;20443;-65
2023/01/03 13:04:15;;;;;;;7.90;5.23;;;10.80;78.40;;;;;;5044544;28;20545;-68
2023/01/03 13:06:54;;;;;;;13.20;6.17;;;10.80;78.50;;;;;;5038995;28;20932;-67
2023/01/03 13:09:30;;;;;;;15.87;8.70;;;10.80;78.50;;;;;;5039554;28;20493;-67
2023/01/03 13:12:03;;;;;;;9.43;5.13;;;10.80;78.50;;;;;;5044485;28;20466;-66
2023/01/03 13:14:51;;;;;;;11.00;6.00;;;10.80;78.40;;;;;;5047133;28;20536;-66
2023/01/03 13:17:22;;;;;;;8.93;5.00;;;10.90;78.40;;;;;;5038067;28;20464;-66
2023/01/03 13:19:58;;;;;;;8.40;5.23;;;10.90;78.40;;;;;;5041539;28;20454;-66
2023/01/03 13:22:47;;;;;;;9.33;4.70;;;10.90;78.40;;;;;;5042847;28;20450;-67
2023/01/03 13:25:38;;;;;;;13.30;5.80;;;10.90;78.40;;;;;;5041492;28;20502;-66
2023/01/03 13:28:29;;;;;;;9.33;5.63;;;10.90;78.40;;;;;;5041990;28;20457;-65
2023/01/03 13:31:36;;;;;;;9.47;4.70;;;10.90;78.40;;;;;;5041834;28;20459;-65
2023/01/03 13:34:34;;;;;;;10.30;4.90;;;11.00;78.40;;;;;;5042947;28;20478;-67
2023/01/03 13:37:18;;;;;;;11.13;5.30;;;11.00;78.30;;;;;;5031304;28;20517;-67
2023/01/03 13:40:00;;;;;;;8.30;5.30;;;11.00;78.30;;;;;;5043702;28;20512;-67
2023/01/03 13:42:30;;;;;;;7.30;4.73;;;11.00;78.30;;;;;;5042060;28;20454;-65
2023/01/03 13:45:36;;;;;;;7.03;3.70;;;11.00;78.30;;;;;;5040299;28;20490;-66
2023/01/03 13:48:17;;;;;;;8.20;4.30;;;11.00;78.30;;;;;;5039376;28;20459;-65
2023/01/03 13:51:04;;;;;;;9.07;4.47;;;11.00;78.20;;;;;;5041786;28;20486;-66
2023/01/03 13:53:37;;;;;;;7.00;4.50;;;11.00;78.20;;;;;;5042376;28;20556;-66
2023/01/03 13:56:23;;;;;;;10.27;4.50;;;11.00;78.10;;;;;;5036297;28;20986;-66
2023/01/03 13:59:07;;;;;;;8.80;4.30;;;11.00;78.10;;;;;;5038616;28;20451;-66
2023/01/03 14:02:01;;;;;;;8.97;4.93;;;11.00;78.20;;;;;;5041822;28;20512;-67
2023/01/03 14:05:05;;;;;;;5.97;3.10;;;11.00;78.20;;;;;;5041807;28;20483;-66
2023/01/03 14:08:09;;;;;;;7.03;3.97;;;11.00;78.20;;;;;;5036768;28;20532;-66
2023/01/03 14:10:58;;;;;;;8.70;4.20;;;11.00;78.20;;;;;;5039871;28;20486;-64
2023/01/03 14:13:41;;;;;;;8.60;3.80;;;11.00;78.20;;;;;;5041404;28;21230;-66
2023/01/03 14:16:25;;;;;;;8.10;4.00;;;11.00;78.10;;;;;;5035227;28;22129;-65
2023/01/03 14:19:02;;;;;;;8.27;3.97;;;11.00;78.10;;;;;;5040223;28;20454;-65
2023/01/03 14:21:41;;;;;;;5.47;3.43;;;11.10;78.00;;;;;;5041638;28;20465;-66
2023/01/03 14:24:18;;;;;;;9.73;4.23;;;11.10;77.90;;;;;;5042218;28;20475;-66